createdAt,value
2023-04-02T00:01:01.969Z,93.46
2023-04-02T00:03:59.519Z,94.03
2023-04-02T00:06:30.517Z,93.79
2023-04-02T00:09:03.315Z,93.66
2023-04-02T00:11:37.526Z,92.79
2023-04-02T00:14:27.088Z,93.97
2023-04-02T00:16:57.036Z,93.52
2023-04-02T00:19:41.422Z,93.05
2023-04-02T00:22:15.884Z,93.49
2023-04-02T00:24:42.897Z,94.14
2023-04-02T00:27:15.659Z,94.36
2023-04-02T00:29:51.869Z,95.07
2023-04-02T00:32:31.871Z,94.84
2023-04-02T00:35:00.187Z,94.44
2023-04-02T00:37:39.019Z,94.82
2023-04-02T00:40:30.745Z,94.59
2023-04-02T00:43:04.385Z,94.62
2023-04-02T00:45:38.367Z,93.67
2023-04-02T00:48:50.580Z,94.32
2023-04-02T00:51:36.759Z,94.61
2023-04-02T00:54:07.007Z,94.49
2023-04-02T00:56:44.353Z,92.85
2023-04-02T00:59:31.475Z,92.40
2023-04-02T01:02:22.776Z,91.99
2023-04-02T01:05:02.443Z,91.18
2023-04-02T01:07:47.807Z,91.27
2023-04-02T01:11:03.035Z,90.92
2023-04-02T01:14:02.716Z,91.57
2023-04-02T01:16:42.394Z,92.08
2023-04-02T01:19:49.205Z,92.47
2023-04-02T01:22:51.301Z,92.18
2023-04-02T01:25:43.870Z,92.41
2023-04-02T01:28:51.511Z,92.22
2023-04-02T01:31:18.829Z,92.57
2023-04-02T01:33:48.427Z,92.11
2023-04-02T01:36:42.525Z,92.16
2023-04-02T01:39:30.259Z,92.07
2023-04-02T01:42:11.368Z,91.71
2023-04-02T01:44:44.435Z,92.05
2023-04-02T01:47:15.986Z,92.29
2023-04-02T01:49:44.294Z,91.34
2023-04-02T01:52:25.793Z,91.55
2023-04-02T01:54:53.647Z,92.69
2023-04-02T01:57:20.990Z,92.59
2023-04-02T01:59:48.313Z,92.91
2023-04-02T02:02:15.999Z,92.49
2023-04-02T02:04:44.068Z,92.30
2023-04-02T02:07:18.066Z,92.66
2023-04-02T02:09:45.757Z,93.22
2023-04-02T02:12:16.211Z,93.21
2023-04-02T02:14:49.393Z,92.35
2023-04-02T02:17:30.524Z,92.42
2023-04-02T02:20:01.620Z,91.71
2023-04-02T02:22:45.219Z,92.44
2023-04-02T02:25:24.702Z,92.52
2023-04-02T02:28:09.487Z,91.74
2023-04-02T02:31:05.840Z,93.02
2023-04-02T02:33:56.367Z,92.91
2023-04-02T02:36:51.676Z,93.76
2023-04-02T02:39:28.141Z,93.85
2023-04-02T02:42:06.025Z,92.70
2023-04-02T02:44:38.950Z,93.46
2023-04-02T02:47:25.003Z,93.86
2023-04-02T02:49:59.757Z,93.80
2023-04-02T02:52:33.110Z,93.24
2023-04-02T02:55:06.907Z,93.50
2023-04-02T02:57:39.730Z,93.79
2023-04-02T03:00:10.063Z,94.23
2023-04-02T03:02:39.449Z,94.29
2023-04-02T03:05:07.642Z,93.83
2023-04-02T03:07:35.033Z,94.55
2023-04-02T03:10:15.242Z,93.57
2023-04-02T03:13:01.187Z,93.40
2023-04-02T03:15:42.325Z,94.20
2023-04-02T03:18:58.098Z,94.31
2023-04-02T03:21:36.824Z,94.08
2023-04-02T03:24:30.404Z,94.94
2023-04-02T03:27:11.660Z,95.25
2023-04-02T03:29:46.459Z,95.55
2023-04-02T03:32:23.393Z,96.25
2023-04-02T03:35:01.978Z,96.95
2023-04-02T03:38:16.383Z,97.03
2023-04-02T03:40:59.809Z,96.92
2023-04-02T03:43:34.806Z,96.32
2023-04-02T03:46:18.618Z,96.72
2023-04-02T03:48:57.765Z,97.09
2023-04-02T03:51:34.658Z,97.45
2023-04-02T03:54:02.743Z,97.85
2023-04-02T03:56:39.767Z,97.79
2023-04-02T03:59:18.521Z,97.63
2023-04-02T04:02:19.823Z,96.41
2023-04-02T04:04:48.878Z,96.97
2023-04-02T04:07:38.590Z,96.81
2023-04-02T04:10:08.748Z,96.22
2023-04-02T04:12:43.660Z,95.40
2023-04-02T04:15:33.299Z,95.71
2023-04-02T04:18:21.660Z,94.40
2023-04-02T04:21:00.697Z,94.74
2023-04-02T04:23:38.405Z,94.47
2023-04-02T04:26:42.629Z,93.29
2023-04-02T04:29:46.592Z,93.82
2023-04-02T04:32:39.354Z,92.82
2023-04-02T04:35:29.795Z,93.05
2023-04-02T04:38:14.475Z,92.36
2023-04-02T04:40:54.217Z,92.62
2023-04-02T04:44:06.969Z,91.91
2023-04-02T04:46:50.075Z,90.64
2023-04-02T04:49:47.903Z,90.86
2023-04-02T04:52:29.493Z,92.10
2023-04-02T04:54:56.610Z,92.16
2023-04-02T04:57:31.136Z,93.15
2023-04-02T05:00:33.110Z,93.98
2023-04-02T05:03:13.493Z,94.03
2023-04-02T05:05:41.487Z,94.86
2023-04-02T05:08:27.123Z,94.36
2023-04-02T05:11:02.681Z,92.85
2023-04-02T05:14:02.018Z,92.67
2023-04-02T05:17:01.665Z,93.03
2023-04-02T05:20:10.004Z,93.25
2023-04-02T05:22:49.029Z,93.50
2023-04-02T05:25:28.378Z,94.15
2023-04-02T05:28:17.455Z,93.86
2023-04-02T05:31:03.265Z,94.96
2023-04-02T05:33:33.982Z,95.13
2023-04-02T05:36:11.755Z,93.67
2023-04-02T05:38:46.412Z,92.66
2023-04-02T05:41:32.435Z,93.23
2023-04-02T05:44:24.492Z,92.31
2023-04-02T05:47:12.365Z,91.61
2023-04-02T05:49:39.422Z,91.55
2023-04-02T05:52:16.958Z,90.93
2023-04-02T05:54:51.850Z,90.20
2023-04-02T05:57:42.717Z,90.53
2023-04-02T06:00:29.221Z,89.54
2023-04-02T06:03:07.602Z,88.96
2023-04-02T06:05:42.040Z,88.94
2023-04-02T06:08:19.512Z,89.82
2023-04-02T06:11:06.904Z,89.32
2023-04-02T06:13:34.155Z,89.10
2023-04-02T06:16:01.607Z,88.78
2023-04-02T06:18:33.625Z,88.36
2023-04-02T06:21:01.528Z,88.88
2023-04-02T06:23:43.449Z,88.40
2023-04-02T06:26:18.258Z,88.60
2023-04-02T06:28:52.314Z,89.05
2023-04-02T06:31:46.897Z,90.08
2023-04-02T06:34:19.210Z,90.45
2023-04-02T06:36:47.903Z,90.01
2023-04-02T06:39:25.257Z,91.08
2023-04-02T06:42:01.968Z,91.08
2023-04-02T06:44:35.771Z,91.99
2023-04-02T06:47:47.291Z,91.98
2023-04-02T06:51:04.088Z,91.42
2023-04-02T06:53:39.182Z,91.59
2023-04-02T06:56:22.461Z,91.63
2023-04-02T06:58:49.610Z,92.55
2023-04-02T07:01:27.324Z,92.95
2023-04-02T07:03:56.161Z,93.74
2023-04-02T07:06:23.458Z,94.41
2023-04-02T07:08:50.695Z,93.05
2023-04-02T07:11:21.693Z,92.91
2023-04-02T07:13:50.567Z,92.22
2023-04-02T07:16:21.461Z,92.05
2023-04-02T07:18:49.176Z,91.86
2023-04-02T07:21:16.199Z,92.92
2023-04-02T07:23:43.330Z,92.77
2023-04-02T07:26:16.885Z,92.10
2023-04-02T07:28:44.360Z,94.34
2023-04-02T07:31:25.890Z,92.26
2023-04-02T07:34:00.230Z,92.11
2023-04-02T07:36:29.889Z,91.77
2023-04-02T07:38:57.262Z,92.12
2023-04-02T07:41:24.549Z,92.04
2023-04-02T07:43:51.564Z,91.84
2023-04-02T07:46:20.325Z,92.84
2023-04-02T07:48:48.141Z,91.67
2023-04-02T07:51:26.703Z,90.99
2023-04-02T07:53:57.204Z,90.88
2023-04-02T07:56:25.554Z,90.89
2023-04-02T07:58:52.710Z,91.27
2023-04-02T08:01:24.464Z,90.04
2023-04-02T08:03:54.416Z,90.75
2023-04-02T08:06:22.758Z,89.20
2023-04-02T08:08:50.787Z,88.96
2023-04-02T08:11:17.861Z,89.07
2023-04-02T08:13:46.086Z,88.87
2023-04-02T08:16:13.125Z,89.52
2023-04-02T08:18:40.290Z,89.40
2023-04-02T08:21:10.116Z,89.80
2023-04-02T08:23:38.090Z,89.41
2023-04-02T08:26:06.145Z,88.45
2023-04-02T08:28:33.208Z,89.09
2023-04-02T08:31:00.785Z,89.22
2023-04-02T08:33:27.932Z,88.30
2023-04-02T08:35:55.069Z,88.79
2023-04-02T08:38:22.980Z,87.44
2023-04-02T08:40:54.344Z,88.24
2023-04-02T08:43:51.065Z,88.55
2023-04-02T08:46:43.336Z,88.02
2023-04-02T08:49:24.993Z,88.25
2023-04-02T08:51:52.227Z,87.07
2023-04-02T08:54:42.746Z,87.12
2023-04-02T08:57:54.271Z,87.04
2023-04-02T09:00:48.911Z,86.97
2023-04-02T09:03:31.841Z,86.91
2023-04-02T09:06:02.154Z,85.32
2023-04-02T09:08:32.293Z,85.90
2023-04-02T09:11:21.653Z,86.60
2023-04-02T09:14:04.031Z,85.68
2023-04-02T09:16:44.004Z,86.43
2023-04-02T09:19:47.245Z,86.62
2023-04-02T09:22:30.262Z,85.80
2023-04-02T09:25:04.285Z,85.90
2023-04-02T09:27:34.824Z,85.93
2023-04-02T09:30:19.437Z,84.68
2023-04-02T09:33:07.654Z,85.17
2023-04-02T09:35:57.710Z,85.73
2023-04-02T09:38:31.813Z,85.50
2023-04-02T09:41:01.539Z,85.86
2023-04-02T09:43:39.564Z,84.22
2023-04-02T09:46:24.297Z,84.23
2023-04-02T09:49:03.782Z,83.82
2023-04-02T09:51:34.697Z,83.56
2023-04-02T09:54:04.521Z,83.88
2023-04-02T09:56:37.279Z,85.08
2023-04-02T09:59:13.101Z,84.17
2023-04-02T10:01:47.898Z,85.12
2023-04-02T10:04:36.972Z,85.80
2023-04-02T10:07:06.532Z,86.57
2023-04-02T10:09:38.989Z,85.93
2023-04-02T10:12:12.518Z,86.71
2023-04-02T10:14:48.365Z,87.09
2023-04-02T10:17:27.940Z,87.78
2023-04-02T10:20:06.236Z,89.00
2023-04-02T10:22:33.594Z,88.88
2023-04-02T10:25:01.551Z,88.59
2023-04-02T10:27:45.842Z,88.61
2023-04-02T10:30:45.178Z,88.20
2023-04-02T10:33:41.200Z,87.85
2023-04-02T10:36:51.309Z,88.69
2023-04-02T10:39:53.534Z,89.26
2023-04-02T10:42:32.491Z,90.12
2023-04-02T10:45:18.117Z,91.07
2023-04-02T10:48:09.261Z,89.90
2023-04-02T10:50:58.581Z,90.49
2023-04-02T10:53:51.239Z,91.03
2023-04-02T10:56:18.434Z,90.46
2023-04-02T10:59:46.822Z,90.61
2023-04-02T11:02:52.045Z,90.94
2023-04-02T11:05:44.478Z,91.44
2023-04-02T11:08:23.687Z,91.67
2023-04-02T11:11:13.369Z,90.98
2023-04-02T11:14:22.528Z,90.43
2023-04-02T11:16:51.934Z,90.47
2023-04-02T11:19:18.790Z,90.76
2023-04-02T11:22:14.330Z,92.05
2023-04-02T11:24:49.795Z,90.92
2023-04-02T11:27:28.127Z,91.20
2023-04-02T11:30:11.677Z,91.91
2023-04-02T11:32:43.089Z,91.51
2023-04-02T11:35:30.940Z,90.40
2023-04-02T11:38:12.493Z,90.02
2023-04-02T11:41:04.751Z,89.86
2023-04-02T11:43:34.598Z,89.70
2023-04-02T11:46:20.703Z,90.40
2023-04-02T11:48:48.399Z,90.22
2023-04-02T11:51:22.538Z,90.04
2023-04-02T11:53:54.570Z,90.75
2023-04-02T11:57:03.417Z,91.00
2023-04-02T12:00:11.349Z,90.16
2023-04-02T12:03:25.666Z,90.64
2023-04-02T12:06:00.838Z,91.17
2023-04-02T12:08:56.977Z,92.36
2023-04-02T12:11:40.354Z,92.10
2023-04-02T12:14:38.271Z,91.98
2023-04-02T12:17:34.132Z,93.34
2023-04-02T12:20:31.747Z,92.01
2023-04-02T12:22:59.130Z,91.44
2023-04-02T12:25:30.030Z,92.45
2023-04-02T12:28:19.666Z,91.25
2023-04-02T12:30:49.482Z,91.80
2023-04-02T12:33:22.209Z,92.14
2023-04-02T12:35:55.045Z,90.80
2023-04-02T12:38:24.375Z,91.33
2023-04-02T12:41:15.721Z,89.31
2023-04-02T12:43:42.769Z,88.39
2023-04-02T12:46:14.325Z,88.84
2023-04-02T12:48:41.560Z,87.96
2023-04-02T12:51:10.301Z,87.67
2023-04-02T12:53:41.259Z,87.25
2023-04-02T12:56:18.408Z,88.16
2023-04-02T12:58:59.396Z,88.07
2023-04-02T13:01:29.589Z,87.51
2023-04-02T13:04:14.967Z,87.18
2023-04-02T13:06:52.130Z,88.01
2023-04-02T13:09:42.210Z,87.15
2023-04-02T13:12:33.074Z,86.99
2023-04-02T13:15:03.979Z,86.67
2023-04-02T13:18:01.847Z,85.68
2023-04-02T13:20:42.202Z,86.41
2023-04-02T13:23:30.917Z,87.28
2023-04-02T13:26:08.861Z,88.16
2023-04-02T13:28:36.117Z,89.58
2023-04-02T13:31:03.175Z,87.87
2023-04-02T13:33:30.202Z,88.22
2023-04-02T13:35:57.247Z,88.59
2023-04-02T13:38:24.271Z,88.14
2023-04-02T13:40:51.762Z,88.24
2023-04-02T13:43:20.707Z,89.00
2023-04-02T13:45:54.386Z,89.86
2023-04-02T13:48:24.654Z,89.43
2023-04-02T13:50:52.877Z,90.50
2023-04-02T13:53:33.181Z,92.19
2023-04-02T13:56:00.863Z,91.23
2023-04-02T13:58:27.906Z,91.57
2023-04-02T14:00:56.098Z,92.26
2023-04-02T14:03:23.419Z,92.40
2023-04-02T14:06:08.494Z,92.97
2023-04-02T14:09:16.768Z,93.31
2023-04-02T14:12:09.721Z,93.08
2023-04-02T14:14:52.412Z,93.68
2023-04-02T14:18:00.048Z,92.18
2023-04-02T14:21:08.222Z,92.73
2023-04-02T14:23:46.782Z,94.75
2023-04-02T14:26:40.582Z,95.10
2023-04-02T14:29:55.650Z,94.07
2023-04-02T14:32:53.156Z,93.24
2023-04-02T14:35:33.014Z,92.32
2023-04-02T14:38:40.611Z,93.73
2023-04-02T14:41:35.973Z,93.57
2023-04-02T14:44:08.550Z,94.21
2023-04-02T14:46:38.280Z,97.12
2023-04-02T14:49:25.051Z,98.02
2023-04-02T14:51:59.764Z,96.54
2023-04-02T14:54:42.770Z,95.17
2023-04-02T14:57:27.902Z,96.55
2023-04-02T15:00:20.687Z,93.85
2023-04-02T15:03:14.526Z,91.07
2023-04-02T15:05:52.797Z,89.42
2023-04-02T15:08:29.850Z,88.59
2023-04-02T15:11:10.823Z,89.02
2023-04-02T15:13:49.075Z,90.43
2023-04-02T15:16:23.580Z,90.20
2023-04-02T15:18:55.181Z,90.32
2023-04-02T15:21:29.653Z,90.34
2023-04-02T15:24:25.064Z,90.29
2023-04-02T15:27:23.907Z,91.18
2023-04-02T15:30:24.660Z,92.24
2023-04-02T15:32:54.354Z,93.27
2023-04-02T15:36:16.270Z,92.94
2023-04-02T15:38:50.739Z,91.73
2023-04-02T15:41:34.330Z,93.11
2023-04-02T15:44:16.448Z,93.72
2023-04-02T15:47:07.442Z,93.82
2023-04-02T15:49:40.378Z,94.63
2023-04-02T15:52:17.990Z,94.77
2023-04-02T15:55:35.622Z,95.08
2023-04-02T15:58:21.986Z,95.62
2023-04-02T16:01:26.331Z,95.84
2023-04-02T16:04:28.508Z,94.69
2023-04-02T16:07:51.144Z,96.01
2023-04-02T16:10:40.030Z,95.54
2023-04-02T16:13:32.415Z,96.21
2023-04-02T16:16:12.584Z,96.19
2023-04-02T16:19:33.518Z,97.41
2023-04-02T16:22:11.746Z,97.47
2023-04-02T16:24:38.745Z,97.71
2023-04-02T16:27:31.931Z,97.77
2023-04-02T16:30:30.682Z,98.36
2023-04-02T16:33:24.398Z,98.60
2023-04-02T16:36:21.423Z,97.77
2023-04-02T16:39:35.532Z,98.57
2023-04-02T16:42:45.807Z,98.43
2023-04-02T16:45:16.921Z,99.37
2023-04-02T16:47:57.737Z,98.78
2023-04-02T16:51:09.834Z,99.38
2023-04-02T16:54:04.176Z,98.45
2023-04-02T16:56:57.088Z,98.20
2023-04-02T16:59:36.105Z,98.83
2023-04-02T17:02:46.415Z,99.43
2023-04-02T17:05:33.897Z,100.00
2023-04-02T17:08:26.749Z,100.00
2023-04-02T17:11:02.916Z,99.86
2023-04-02T17:13:44.708Z,99.52
2023-04-02T17:16:41.277Z,99.78
2023-04-02T17:19:16.650Z,100.00
2023-04-02T17:21:52.925Z,100.00
2023-04-02T17:24:35.634Z,99.41
2023-04-02T17:27:39.491Z,99.57
2023-04-02T17:30:19.293Z,100.00
2023-04-02T17:32:46.387Z,100.00
2023-04-02T17:35:43.726Z,100.00
2023-04-02T17:38:27.531Z,100.00
2023-04-02T17:41:19.286Z,100.00
2023-04-02T17:44:10.722Z,99.39
2023-04-02T17:47:07.605Z,99.21
2023-04-02T17:50:15.955Z,98.91
2023-04-02T17:52:58.507Z,98.98
2023-04-02T17:56:02.441Z,98.74
2023-04-02T17:59:06.628Z,96.90
2023-04-02T18:02:01.603Z,94.49
2023-04-02T18:04:49.484Z,94.96
2023-04-02T18:07:58.459Z,93.63
2023-04-02T18:11:05.553Z,94.00
2023-04-02T18:13:46.973Z,93.15
2023-04-02T18:17:04.166Z,92.77
2023-04-02T18:19:55.875Z,92.56
2023-04-02T18:22:49.631Z,92.10
2023-04-02T18:25:34.634Z,92.71
2023-04-02T18:28:31.220Z,92.48
2023-04-02T18:31:12.502Z,92.57
2023-04-02T18:34:16.790Z,92.40
2023-04-02T18:37:15.297Z,92.12
2023-04-02T18:39:51.125Z,91.77
2023-04-02T18:42:56.142Z,91.17
2023-04-02T18:46:13.398Z,92.12
2023-04-02T18:49:18.201Z,92.25
2023-04-02T18:51:46.977Z,92.46
2023-04-02T18:54:23.030Z,91.56
2023-04-02T18:56:50.095Z,91.93
2023-04-02T18:59:29.077Z,91.61
2023-04-02T19:01:59.075Z,91.23
2023-04-02T19:04:32.778Z,91.63
2023-04-02T19:07:27.949Z,92.85
2023-04-02T19:09:58.843Z,92.41
2023-04-02T19:12:26.269Z,92.51
2023-04-02T19:14:53.763Z,92.59
2023-04-02T19:17:27.200Z,91.90
2023-04-02T19:20:25.775Z,92.52
2023-04-02T19:23:21.244Z,91.45
2023-04-02T19:26:11.525Z,91.10
2023-04-02T19:28:44.362Z,91.97
2023-04-02T19:31:51.963Z,91.57
2023-04-02T19:34:42.817Z,90.70
2023-04-02T19:37:30.719Z,89.94
2023-04-02T19:40:32.517Z,89.78
2023-04-02T19:42:59.632Z,89.61
2023-04-02T19:45:43.296Z,89.67
2023-04-02T19:48:24.499Z,90.08
2023-04-02T19:50:51.713Z,89.72
2023-04-02T19:53:19.145Z,89.35
2023-04-02T19:55:46.766Z,88.63
2023-04-02T19:58:35.847Z,88.25
2023-04-02T20:01:03.443Z,87.33
2023-04-02T20:03:31.475Z,86.62
2023-04-02T20:05:59.841Z,85.61
2023-04-02T20:08:28.044Z,84.36
2023-04-02T20:10:56.120Z,83.56
2023-04-02T20:13:23.293Z,82.53
2023-04-02T20:15:51.527Z,81.67
2023-04-02T20:18:20.538Z,81.69
2023-04-02T20:20:49.325Z,81.79
2023-04-02T20:23:17.316Z,82.34
2023-04-02T20:25:53.142Z,82.07
2023-04-02T20:28:25.553Z,81.70
2023-04-02T20:30:53.431Z,81.08
2023-04-02T20:33:24.580Z,80.99
2023-04-02T20:36:00.845Z,80.85
2023-04-02T20:38:28.440Z,81.27
2023-04-02T20:40:56.031Z,81.59
2023-04-02T20:43:27.144Z,82.51
2023-04-02T20:45:56.538Z,80.49
2023-04-02T20:48:30.884Z,78.65
2023-04-02T20:50:59.666Z,78.16
2023-04-02T20:53:29.636Z,76.21
2023-04-02T20:56:14.444Z,75.63
2023-04-02T20:58:43.245Z,74.54
2023-04-02T21:01:27.144Z,73.14
2023-04-02T21:03:58.026Z,72.42
2023-04-02T21:06:28.738Z,70.97
2023-04-02T21:08:56.344Z,69.93
2023-04-02T21:11:23.730Z,69.14
2023-04-02T21:13:51.728Z,68.35
2023-04-02T21:16:32.195Z,67.48
2023-04-02T21:19:04.201Z,67.70
2023-04-02T21:21:31.656Z,67.29
2023-04-02T21:24:02.602Z,66.37
2023-04-02T21:26:34.735Z,65.63
2023-04-02T21:29:02.769Z,65.95
2023-04-02T21:31:34.170Z,65.27
2023-04-02T21:34:01.379Z,64.24
2023-04-02T21:36:39.897Z,65.14
2023-04-02T21:39:27.290Z,66.57
2023-04-02T21:41:54.783Z,66.56
2023-04-02T21:44:23.779Z,66.51
2023-04-02T21:46:53.586Z,65.60
2023-04-02T21:49:23.226Z,64.26
2023-04-02T21:51:52.102Z,64.39
2023-04-02T21:54:19.232Z,64.38
2023-04-02T21:56:47.185Z,63.38
2023-04-02T21:59:16.458Z,63.29
2023-04-02T22:01:48.302Z,63.25
2023-04-02T22:04:22.142Z,62.97
2023-04-02T22:06:50.650Z,62.97
2023-04-02T22:09:24.053Z,62.65
2023-04-02T22:11:55.429Z,62.36
2023-04-02T22:14:23.275Z,61.53
2023-04-02T22:16:50.955Z,61.07
2023-04-02T22:19:18.302Z,61.73
2023-04-02T22:21:46.421Z,61.46
2023-04-02T22:24:16.120Z,60.58
2023-04-02T22:26:44.436Z,60.37
2023-04-02T22:29:12.052Z,60.87
2023-04-02T22:31:39.457Z,60.54
2023-04-02T22:34:07.286Z,60.57
2023-04-02T22:36:35.180Z,60.60
2023-04-02T22:39:05.621Z,60.41
2023-04-02T22:41:33.669Z,60.02
2023-04-02T22:44:02.150Z,59.71
2023-04-02T22:46:30.543Z,60.29
2023-04-02T22:48:58.156Z,60.49
2023-04-02T22:51:27.590Z,60.85
2023-04-02T22:53:56.266Z,60.79
2023-04-02T22:56:32.067Z,61.27
2023-04-02T22:58:59.499Z,61.81
2023-04-02T23:01:31.703Z,61.29
2023-04-02T23:03:59.448Z,61.14
2023-04-02T23:06:27.285Z,61.35
2023-04-02T23:08:54.310Z,60.92
2023-04-02T23:11:26.091Z,60.28
2023-04-02T23:13:56.801Z,60.64
2023-04-02T23:16:27.045Z,60.31
2023-04-02T23:18:55.509Z,60.32
2023-04-02T23:21:23.893Z,60.60
2023-04-02T23:23:51.481Z,60.59
2023-04-02T23:26:23.083Z,60.50
2023-04-02T23:28:51.169Z,60.41
2023-04-02T23:31:21.623Z,60.58
2023-04-02T23:33:49.900Z,60.35
2023-04-02T23:36:27.502Z,60.43
2023-04-02T23:38:59.699Z,60.64
2023-04-02T23:41:28.167Z,60.82
2023-04-02T23:43:57.091Z,61.09
2023-04-02T23:46:24.976Z,60.66
2023-04-02T23:48:52.692Z,60.27
2023-04-02T23:51:19.875Z,60.56
2023-04-02T23:53:48.691Z,60.46
2023-04-02T23:56:16.169Z,60.20
2023-04-02T23:58:43.222Z,60.46
